Time;durP1;ratioP1;P1;durP2;ratioP2;P2;SDS_P1;SDS_P2;PMS_P1;PMS_P2;Temp;Humidity;BMP_temperature;BMP_pressure;BME280_temperature;BME280_humidity;BME280_pressure;Samples;Min_cycle;Max_cycle;Signal;HPM_P1;HPM_P2
2020/12/31 00:01:28;;;;;;;23.38;11.45;;;;;;;8.35;100.00;98442.91;1728929;83;21763;-71
2020/12/31 00:03:57;;;;;;;24.82;11.88;;;;;;;8.36;100.00;98451.05;1727960;83;21173;-73
2020/12/31 00:06:25;;;;;;;23.52;11.08;;;;;;;8.37;100.00;98439.94;1728538;83;21142;-68
2020/12/31 00:08:52;;;;;;;22.67;13.20;;;;;;;8.37;100.00;98450.62;1728782;83;21212;-73
2020/12/31 00:11:20;;;;;;;37.80;13.10;;;;;;;8.35;100.00;98441.62;1729025;83;21505;-70
2020/12/31 00:13:47;;;;;;;25.90;12.07;;;;;;;8.35;100.00;98437.77;1728740;83;21046;-71
2020/12/31 00:16:16;;;;;;;28.85;12.25;;;;;;;8.35;100.00;98445.48;1729175;83;21505;-69
2020/12/31 00:18:44;;;;;;;28.87;12.23;;;;;;;8.35;100.00;98422.34;1729578;83;21067;-73
2020/12/31 00:21:11;;;;;;;29.42;12.65;;;;;;;8.38;100.00;98453.22;1729783;83;21054;-75
2020/12/31 00:23:39;;;;;;;25.75;12.75;;;;;;;8.43;100.00;98456.73;1730043;83;21162;-72
2020/12/31 00:26:07;;;;;;;31.80;12.47;;;;;;;8.44;100.00;98460.16;1729739;83;21054;-74
2020/12/31 00:28:34;;;;;;;26.68;11.50;;;;;;;8.42;100.00;98456.31;1730263;83;21071;-75
2020/12/31 00:31:02;;;;;;;26.40;13.60;;;;;;;8.41;100.00;98463.56;1730386;83;21043;-72
2020/12/31 00:33:30;;;;;;;29.65;13.58;;;;;;;8.39;100.00;98456.64;1730184;83;21074;-71
2020/12/31 00:35:58;;;;;;;30.62;13.48;;;;;;;8.38;100.00;98445.50;1729973;83;21095;-70
2020/12/31 00:38:25;;;;;;;25.32;12.65;;;;;;;8.37;100.00;98423.63;1729953;83;21473;-70
2020/12/31 00:40:53;;;;;;;25.62;12.40;;;;;;;8.34;100.00;98451.44;1729931;83;21050;-71
2020/12/31 00:43:23;;;;;;;31.97;13.98;;;;;;;8.36;100.00;98463.90;1729982;83;21190;-67
2020/12/31 00:45:52;;;;;;;24.40;12.65;;;;;;;8.35;100.00;98454.91;1730033;83;21075;-70
2020/12/31 00:48:19;;;;;;;29.12;12.55;;;;;;;8.36;100.00;98431.76;1729780;83;21046;-69
2020/12/31 00:50:47;;;;;;;27.73;12.07;;;;;;;8.37;100.00;98455.75;1729862;83;21023;-71
2020/12/31 00:53:15;;;;;;;26.97;12.28;;;;;;;8.38;100.00;98442.93;1729723;83;21045;-70
2020/12/31 00:55:44;;;;;;;28.85;13.98;;;;;;;8.37;100.00;98448.94;1729779;83;21035;-72
2020/12/31 00:58:11;;;;;;;25.97;12.43;;;;;;;8.36;100.00;98446.33;1709415;83;21062;-72
2020/12/31 01:00:39;;;;;;;28.60;14.47;;;;;;;8.38;100.00;98469.07;1668097;86;21039;-70
2020/12/31 01:03:09;;;;;;;25.68;11.97;;;;;;;8.36;100.00;98466.90;1699623;84;21135;-73
2020/12/31 01:05:36;;;;;;;30.10;13.25;;;;;;;8.34;100.00;98446.30;1735413;83;21488;-69
2020/12/31 01:08:04;;;;;;;35.00;14.68;;;;;;;8.33;100.00;98445.02;1670708;86;21055;-72
2020/12/31 01:10:32;;;;;;;34.58;14.25;;;;;;;8.35;100.00;98460.05;1696237;85;21501;-71
2020/12/31 01:12:59;;;;;;;26.77;12.68;;;;;;;8.34;100.00;98454.02;1732554;83;21200;-68
2020/12/31 01:15:29;;;;;;;26.20;13.70;;;;;;;8.35;100.00;98463.47;1732739;83;21513;-70
2020/12/31 01:17:59;;;;;;;22.73;12.13;;;;;;;8.33;100.00;98463.02;1732598;83;21193;-71
2020/12/31 01:20:27;;;;;;;24.45;11.63;;;;;;;8.33;100.00;98451.45;1732884;83;21090;-69
2020/12/31 01:22:54;;;;;;;29.05;12.80;;;;;;;8.35;100.00;98454.91;1732785;83;21034;-70
2020/12/31 01:25:22;;;;;;;31.37;13.95;;;;;;;8.33;100.00;98449.73;1732795;83;21028;-68
2020/12/31 01:27:50;;;;;;;23.62;13.30;;;;;;;8.34;100.00;98445.44;1732869;83;21070;-73
2020/12/31 01:30:18;;;;;;;29.48;11.95;;;;;;;8.32;100.00;98435.16;1732844;83;21223;-72
2020/12/31 01:32:45;;;;;;;23.25;11.00;;;;;;;8.36;100.00;98442.05;1732750;83;21082;-72
2020/12/31 01:35:13;;;;;;;23.38;13.20;;;;;;;8.34;100.00;98456.58;1732818;83;21481;-70
2020/12/31 01:37:40;;;;;;;25.60;13.05;;;;;;;8.31;100.00;98460.41;1732765;83;21213;-73
2020/12/31 01:40:08;;;;;;;26.17;13.22;;;;;;;8.31;100.00;98453.98;1732721;83;21066;-67
2020/12/31 01:42:42;;;;;;;24.10;13.10;;;;;;;8.32;100.00;98444.16;1732807;83;21433;-72
2020/12/31 01:45:12;;;;;;;29.90;13.93;;;;;;;8.31;100.00;98435.13;1732637;83;21508;-72
2020/12/31 01:47:41;;;;;;;26.70;12.80;;;;;;;8.31;100.00;98459.13;1732551;83;21193;-70
2020/12/31 01:50:09;;;;;;;27.93;12.80;;;;;;;8.31;100.00;98453.98;1732637;83;21030;-75
2020/12/31 01:52:36;;;;;;;29.25;12.35;;;;;;;8.30;100.00;98448.41;1732804;83;21058;-71
2020/12/31 01:55:06;;;;;;;23.30;11.95;;;;;;;8.28;100.00;98451.39;1732498;83;21051;-69
2020/12/31 01:57:35;;;;;;;27.07;13.75;;;;;;;8.30;100.00;98449.70;1732777;83;21030;-73
2020/12/31 02:00:04;;;;;;;24.85;12.70;;;;;;;8.32;100.00;98435.56;1702321;83;21038;-70
2020/12/31 02:02:33;;;;;;;29.63;13.00;;;;;;;8.35;100.00;98415.91;1731389;83;21098;-75
2020/12/31 02:05:01;;;;;;;30.02;13.50;;;;;;;8.36;100.00;98447.19;1725752;83;21663;-73
2020/12/31 02:07:30;;;;;;;22.75;12.20;;;;;;;8.37;100.00;98439.05;1724981;83;21082;-70
2020/12/31 02:09:57;;;;;;;21.48;11.22;;;;;;;8.37;100.00;98455.36;1724947;83;21122;-69
2020/12/31 02:12:26;;;;;;;23.27;12.30;;;;;;;8.41;100.00;98425.00;1719809;83;21051;-73
2020/12/31 02:14:55;;;;;;;29.90;11.68;;;;;;;8.41;100.00;98423.70;1719696;83;21050;-70
2020/12/31 02:17:23;;;;;;;19.82;11.30;;;;;;;8.42;100.00;98437.02;1719761;83;21031;-69
2020/12/31 02:19:50;;;;;;;26.97;13.28;;;;;;;8.40;100.00;98434.85;1719937;83;21462;-68
2020/12/31 02:22:18;;;;;;;27.60;12.23;;;;;;;8.38;100.00;98417.22;1719645;83;21067;-68
2020/12/31 02:24:45;;;;;;;24.07;11.22;;;;;;;8.35;100.00;98433.91;1719810;83;21501;-70
2020/12/31 02:27:13;;;;;;;24.05;11.73;;;;;;;8.35;100.00;98432.62;1719772;83;21050;-73
2020/12/31 02:29:40;;;;;;;24.55;11.00;;;;;;;8.34;100.00;98433.45;1724811;83;21062;-70
2020/12/31 02:32:08;;;;;;;22.02;11.43;;;;;;;8.32;100.00;98430.42;1725046;83;21600;-70
2020/12/31 02:34:35;;;;;;;20.68;10.82;;;;;;;8.30;100.00;98422.70;1724923;83;21079;-74
2020/12/31 02:37:03;;;;;;;25.08;12.25;;;;;;;8.33;100.00;98428.31;1719606;83;21063;-69
2020/12/31 02:39:31;;;;;;;27.60;11.48;;;;;;;8.36;100.00;98430.91;1719601;83;21051;-71
2020/12/31 02:41:58;;;;;;;22.35;11.15;;;;;;;8.34;100.00;98430.87;1719689;83;21051;-71
2020/12/31 02:44:26;;;;;;;17.80;11.05;;;;;;;8.29;100.00;98419.67;1719632;83;21134;-70
2020/12/31 02:46:53;;;;;;;23.05;11.83;;;;;;;8.30;100.00;98428.28;1719893;83;21466;-71
2020/12/31 02:49:20;;;;;;;22.02;11.93;;;;;;;8.29;100.00;98435.53;1719763;83;21237;-69
2020/12/31 02:51:48;;;;;;;17.92;11.40;;;;;;;8.25;100.00;98419.22;1719792;83;21481;-71
2020/12/31 02:54:16;;;;;;;24.15;13.25;;;;;;;8.20;100.00;98429.45;1719779;83;21106;-73
2020/12/31 02:56:44;;;;;;;18.98;10.45;;;;;;;8.16;100.00;98434.52;1720030;83;21170;-73
2020/12/31 02:59:11;;;;;;;25.08;12.07;;;;;;;8.14;100.00;98410.51;1724857;83;21079;-72
2020/12/31 03:01:41;;;;;;;21.45;11.70;;;;;;;8.13;100.00;98397.23;1725002;83;21058;-69
2020/12/31 03:04:08;;;;;;;19.12;9.58;;;;;;;8.10;100.00;98413.91;1726990;83;21525;-69
2020/12/31 03:06:36;;;;;;;21.20;11.40;;;;;;;8.05;100.00;98408.28;1730274;83;21078;-69
2020/12/31 03:09:04;;;;;;;18.87;11.48;;;;;;;8.01;100.00;98404.36;1729906;83;21193;-71
2020/12/31 03:11:32;;;;;;;20.35;10.70;;;;;;;8.01;100.00;98409.10;1729976;83;21209;-70
2020/12/31 03:13:59;;;;;;;29.82;12.23;;;;;;;8.03;100.00;98386.83;1730171;83;21449;-73
2020/12/31 03:16:27;;;;;;;18.35;10.50;;;;;;;8.02;100.00;98392.83;1730200;83;21405;-72
2020/12/31 03:18:55;;;;;;;18.40;10.40;;;;;;;7.99;100.00;98389.38;1729875;83;21192;-69
2020/12/31 03:21:22;;;;;;;24.02;11.55;;;;;;;7.95;100.00;98397.45;1729899;83;21228;-71
2020/12/31 03:23:50;;;;;;;22.62;11.85;;;;;;;7.94;100.00;98376.89;1730194;83;21082;-68
2020/12/31 03:26:17;;;;;;;20.27;12.23;;;;;;;7.94;100.00;98395.73;1730163;82;21086;-72
2020/12/31 03:28:45;;;;;;;19.82;10.72;;;;;;;7.94;100.00;98383.31;1729894;83;21071;-73
2020/12/31 03:31:12;;;;;;;22.70;11.25;;;;;;;7.94;100.00;98389.31;1730257;83;21184;-70
2020/12/31 03:33:40;;;;;;;24.65;11.63;;;;;;;7.92;100.00;98378.15;1730082;83;21513;-71
2020/12/31 03:36:07;;;;;;;20.65;11.70;;;;;;;7.93;100.00;98385.00;1729943;83;21048;-70
2020/12/31 03:38:35;;;;;;;19.02;11.55;;;;;;;7.90;100.00;98372.13;1732760;83;21453;-73
2020/12/31 03:41:02;;;;;;;22.48;11.60;;;;;;;7.88;100.00;98380.23;1732489;83;21501;-71
2020/12/31 03:43:30;;;;;;;25.50;11.95;;;;;;;7.88;100.00;98384.08;1730145;83;21611;-72
2020/12/31 03:45:58;;;;;;;20.72;11.73;;;;;;;7.88;100.00;98378.94;1732560;83;21090;-70
2020/12/31 03:48:25;;;;;;;23.87;12.88;;;;;;;7.87;100.00;98394.36;1732672;83;21027;-73
2020/12/31 03:50:53;;;;;;;22.35;12.80;;;;;;;7.87;100.00;98372.52;1732712;83;21208;-69
2020/12/31 03:53:20;;;;;;;21.27;11.45;;;;;;;7.86;100.00;98385.80;1732870;83;21042;-67
2020/12/31 03:55:48;;;;;;;21.42;12.07;;;;;;;7.87;100.00;98372.09;1732642;83;21057;-70
2020/12/31 03:58:15;;;;;;;26.23;14.40;;;;;;;7.89;100.00;98372.98;1732547;82;21031;-72
2020/12/31 04:00:42;;;;;;;21.93;12.45;;;;;;;7.88;100.00;98380.23;1732613;83;21058;-68
2020/12/31 04:03:12;;;;;;;24.30;12.75;;;;;;;7.85;100.00;98354.51;1732430;83;21078;-72
2020/12/31 04:05:39;;;;;;;23.07;12.33;;;;;;;7.81;100.00;98383.56;1729416;83;21272;-73
2020/12/31 04:08:07;;;;;;;20.05;11.95;;;;;;;7.81;100.00;98374.17;1729733;83;21033;-67
2020/12/31 04:10:34;;;;;;;26.37;13.05;;;;;;;7.81;100.00;98357.47;1729583;83;21051;-72
2020/12/31 04:13:02;;;;;;;23.55;11.68;;;;;;;7.84;100.00;98369.49;1729731;83;21078;-71
2020/12/31 04:15:29;;;;;;;22.93;12.05;;;;;;;7.88;100.00;98367.38;1729826;83;21192;-70
2020/12/31 04:17:57;;;;;;;21.27;12.23;;;;;;;7.88;100.00;98372.95;1729956;83;21217;-70
2020/12/31 04:20:24;;;;;;;26.93;12.28;;;;;;;7.86;100.00;98374.23;1729826;83;21620;-71
2020/12/31 04:22:52;;;;;;;24.23;11.73;;;;;;;7.88;100.00;98395.64;1729394;83;21229;-71
2020/12/31 04:25:19;;;;;;;22.65;11.68;;;;;;;7.89;100.00;98380.69;1728817;83;21520;-71
2020/12/31 04:27:46;;;;;;;24.10;13.22;;;;;;;7.87;100.00;98399.50;1729001;83;21089;-74
2020/12/31 04:30:14;;;;;;;23.77;11.88;;;;;;;7.85;100.00;98384.05;1728828;83;21090;-71
2020/12/31 04:32:42;;;;;;;17.77;10.55;;;;;;;7.82;100.00;98357.05;1728836;83;21094;-70
2020/12/31 04:35:09;;;;;;;24.63;12.85;;;;;;;7.83;100.00;98359.61;1728823;83;21115;-71
2020/12/31 04:37:37;;;;;;;19.45;12.73;;;;;;;7.80;100.00;98393.41;1729116;83;21063;-70
2020/12/31 04:40:04;;;;;;;23.52;12.80;;;;;;;7.80;100.00;98401.11;1729523;83;21030;-71
2020/12/31 04:42:36;;;;;;;22.82;12.43;;;;;;;7.78;100.00;98389.95;1729796;83;21051;-70
2020/12/31 04:45:05;;;;;;;23.80;13.45;;;;;;;7.78;100.00;98410.50;1729806;83;21200;-71
2020/12/31 04:47:44;;;;;;;26.65;14.83;;;;;;;7.76;100.00;98383.92;1729824;83;21192;-70
2020/12/31 04:50:14;;;;;;;32.10;14.90;;;;;;;7.78;100.00;98387.38;1729813;83;21197;-72
2020/12/31 04:52:42;;;;;;;29.80;14.20;;;;;;;7.79;100.00;98396.41;1729763;83;21066;-70
2020/12/31 04:55:10;;;;;;;27.75;13.78;;;;;;;7.81;100.00;98432.36;1729533;83;21086;-70
2020/12/31 04:57:38;;;;;;;27.50;14.20;;;;;;;7.80;100.00;98410.95;1729708;83;21063;-70
2020/12/31 05:00:09;;;;;;;25.05;15.10;;;;;;;7.80;100.00;98430.22;1723167;83;22319;-71
2020/12/31 05:02:37;;;;;;;28.12;14.75;;;;;;;7.81;100.00;98420.80;1692045;83;21536;-70
2020/12/31 05:05:05;;;;;;;24.67;15.63;;;;;;;7.83;100.00;98413.98;1729622;83;21101;-71
2020/12/31 05:07:33;;;;;;;26.42;15.03;;;;;;;7.84;100.00;98406.73;1709243;83;21221;-71
2020/12/31 05:10:10;;;;;;;24.77;14.85;;;;;;;7.85;100.00;98413.59;1729861;83;21453;-71
2020/12/31 05:12:38;;;;;;;32.75;15.70;;;;;;;7.81;100.00;98415.66;1729723;83;21031;-70
2020/12/31 05:15:07;;;;;;;30.27;15.03;;;;;;;7.84;100.00;98414.45;1729785;83;21505;-71
2020/12/31 05:17:35;;;;;;;27.80;15.80;;;;;;;7.87;100.00;98431.18;1729969;83;21481;-70
2020/12/31 05:20:14;;;;;;;26.45;15.18;;;;;;;7.87;100.00;98415.77;1729691;83;21071;-71
2020/12/31 05:22:42;;;;;;;28.17;16.10;;;;;;;7.91;100.00;98426.53;1729681;83;21193;-70
2020/12/31 05:25:10;;;;;;;29.90;14.55;;;;;;;7.94;100.00;98439.41;1729990;83;21039;-70
2020/12/31 05:27:37;;;;;;;27.90;16.87;;;;;;;7.92;100.00;98442.38;1729945;83;21062;-71
2020/12/31 05:30:10;;;;;;;26.15;13.58;;;;;;;7.90;100.00;98440.20;1729696;83;21185;-70
2020/12/31 05:32:40;;;;;;;29.80;15.55;;;;;;;7.89;100.00;98434.64;1729994;83;21493;-70
2020/12/31 05:35:16;;;;;;;28.20;16.32;;;;;;;7.89;100.00;98438.48;1729882;83;21505;-70
2020/12/31 05:37:45;;;;;;;29.95;15.38;;;;;;;7.92;100.00;98448.80;1729769;83;21196;-71
2020/12/31 05:40:18;;;;;;;30.25;15.58;;;;;;;7.90;100.00;98435.06;1729925;83;21505;-70
2020/12/31 05:42:43;;;;;;;26.80;15.20;;;;;;;7.89;100.00;98443.63;1729559;83;21493;-70
2020/12/31 05:45:17;;;;;;;26.70;15.20;;;;;;;7.90;100.00;98402.95;1729717;83;21043;-70
2020/12/31 05:47:53;;;;;;;26.12;15.95;;;;;;;7.90;100.00;98435.06;1729673;83;21196;-72
2020/12/31 05:50:24;;;;;;;31.40;16.23;;;;;;;7.94;100.00;98434.27;1729845;83;21083;-71
2020/12/31 05:52:54;;;;;;;28.10;15.93;;;;;;;7.99;100.00;98463.89;1730077;83;21070;-69
2020/12/31 05:55:24;;;;;;;28.25;16.15;;;;;;;8.01;100.00;98463.06;1729453;83;21703;-70
2020/12/31 05:57:55;;;;;;;27.30;16.02;;;;;;;8.03;100.00;98462.64;1729777;83;21071;-68
2020/12/31 06:00:29;;;;;;;27.30;16.65;;;;;;;8.07;100.00;98475.55;1729668;83;21232;-69
2020/12/31 06:03:01;;;;;;;25.12;15.05;;;;;;;8.03;100.00;98466.49;1729905;83;21632;-60
2020/12/31 06:05:30;;;;;;;31.10;16.57;;;;;;;8.03;100.00;98472.91;1729688;83;21524;-70
2020/12/31 06:07:59;;;;;;;26.42;16.02;;;;;;;8.02;100.00;98484.48;1729973;83;21185;-76
2020/12/31 06:10:32;;;;;;;32.93;16.60;;;;;;;8.00;100.00;98489.58;1729701;83;21054;-67
2020/12/31 06:13:01;;;;;;;;;;;;;;;7.98;100.00;98481.41;1732470;83;21059;-68
2020/12/31 06:15:37;;;;;;;24.90;14.63;;;;;;;7.98;100.00;98469.42;1729655;83;20235;-67
2020/12/31 06:18:06;;;;;;;27.15;15.93;;;;;;;7.99;100.00;98478.88;1729802;83;21094;-72
2020/12/31 06:20:39;;;;;;;32.03;15.85;;;;;;;7.99;100.00;98482.73;1729654;83;21066;-76
2020/12/31 06:23:10;;;;;;;25.32;16.20;;;;;;;8.03;100.00;98497.33;1727678;83;21440;-72
2020/12/31 06:25:46;;;;;;;27.35;16.70;;;;;;;8.09;100.00;98495.68;1716576;83;21474;-74
2020/12/31 06:28:21;;;;;;;29.75;15.85;;;;;;;8.12;99.89;98477.76;1722909;83;21682;-74
2020/12/31 06:30:53;;;;;;;25.97;15.13;;;;;;;8.13;99.27;98487.19;1730135;83;21489;-72
2020/12/31 06:33:43;;;;;;;25.35;14.70;;;;;;;8.10;99.11;98461.45;1729990;83;21058;-75
2020/12/31 06:36:12;;;;;;;30.05;15.85;;;;;;;8.08;98.91;98455.42;1729600;83;21035;-73
2020/12/31 06:38:48;;;;;;;32.60;16.00;;;;;;;8.07;99.15;98479.41;1730207;83;21083;-73
2020/12/31 06:41:41;;;;;;;26.50;15.55;;;;;;;8.03;99.24;98481.91;1729412;83;21079;-74
2020/12/31 06:44:13;;;;;;;24.23;14.58;;;;;;;8.01;99.15;98460.49;1729894;83;21074;-74
2020/12/31 06:46:48;;;;;;;29.60;15.68;;;;;;;7.99;99.14;98481.45;1730119;83;21449;-74
2020/12/31 06:49:16;;;;;;;23.67;14.78;;;;;;;7.97;99.38;98502.39;1729985;83;21184;-73
2020/12/31 06:51:44;;;;;;;29.32;14.45;;;;;;;8.01;99.30;98509.31;1729796;83;21062;-73
2020/12/31 06:54:12;;;;;;;26.68;15.43;;;;;;;8.03;99.16;98508.89;1726091;83;21082;-75
2020/12/31 06:56:50;;;;;;;28.00;15.98;;;;;;;8.05;99.29;98507.64;1719751;83;21027;-71
2020/12/31 06:59:36;;;;;;;23.75;13.90;;;;;;;8.10;98.73;98502.14;1689466;85;21237;-70
2020/12/31 07:02:18;;;;;;;26.23;14.13;;;;;;;8.15;98.62;98512.48;1700619;84;21567;-74
2020/12/31 07:04:45;;;;;;;25.25;13.83;;;;;;;8.17;97.86;98483.82;1730342;81;21027;-74
2020/12/31 07:07:27;;;;;;;24.80;13.25;;;;;;;8.16;97.74;98496.20;1684383;83;21483;-75
2020/12/31 07:10:00;;;;;;;27.05;13.90;;;;;;;8.15;97.48;98486.78;1670425;85;21043;-77
2020/12/31 07:12:41;;;;;;;25.92;14.15;;;;;;;8.16;97.68;98507.78;1670319;86;21150;-76
2020/12/31 07:15:09;;;;;;;23.50;14.03;;;;;;;8.21;97.63;98498.42;1670290;85;21086;-75
2020/12/31 07:17:41;;;;;;;27.93;15.10;;;;;;;8.26;97.32;98501.91;1670531;86;21070;-73
2020/12/31 07:20:18;;;;;;;26.07;15.00;;;;;;;8.22;97.39;98513.88;1670239;84;21043;-74
2020/12/31 07:22:49;;;;;;;28.40;14.55;;;;;;;8.18;97.64;98507.37;1670347;86;21201;-72
2020/12/31 07:25:19;;;;;;;26.13;14.10;;;;;;;8.14;97.81;98504.31;1670645;86;21505;-72
2020/12/31 07:27:49;;;;;;;26.95;14.20;;;;;;;8.14;97.90;98510.73;1670328;85;21525;-72
2020/12/31 07:30:23;;;;;;;25.17;13.78;;;;;;;8.17;97.79;98512.09;1674391;83;21548;-73
2020/12/31 07:32:54;;;;;;;26.48;14.23;;;;;;;8.21;97.78;98512.55;1689418;84;21612;-71
2020/12/31 07:35:33;;;;;;;25.48;14.00;;;;;;;8.26;97.65;98522.48;1695458;83;21077;-74
2020/12/31 07:38:15;;;;;;;27.52;14.35;;;;;;;8.27;97.49;98519.08;1689523;84;21714;-70
2020/12/31 07:40:50;;;;;;;29.82;15.38;;;;;;;8.26;97.72;98531.47;1669417;84;21236;-70
2020/12/31 07:43:27;;;;;;;33.67;16.42;;;;;;;8.31;97.87;98539.25;1677206;84;21114;-73
2020/12/31 07:46:04;;;;;;;24.05;14.90;;;;;;;8.39;97.80;98537.63;1680386;84;21267;-71
2020/12/31 07:48:31;;;;;;;25.40;15.20;;;;;;;8.45;97.52;98537.34;1697793;84;21196;-70
2020/12/31 07:51:09;;;;;;;25.90;15.88;;;;;;;8.50;97.28;98539.08;1691642;83;21052;-70
2020/12/31 07:53:35;;;;;;;29.30;15.55;;;;;;;8.47;97.24;98541.19;1682670;84;21220;-71
2020/12/31 07:56:06;;;;;;;28.77;15.75;;;;;;;8.47;97.26;98534.77;1675270;83;21277;-71
2020/12/31 07:58:35;;;;;;;24.98;13.98;;;;;;;8.46;97.33;98543.34;1657799;86;21059;-71
2020/12/31 08:01:07;;;;;;;26.33;15.93;;;;;;;8.43;97.32;98540.30;1654075;85;21163;-75
2020/12/31 08:03:35;;;;;;;26.62;15.45;;;;;;;8.35;97.68;98540.60;1691354;83;21097;-72
2020/12/31 08:06:07;;;;;;;28.42;16.25;;;;;;;8.34;97.95;98538.00;1679572;83;21137;-72
2020/12/31 08:08:35;;;;;;;24.07;14.78;;;;;;;8.28;98.07;98547.78;1696358;83;21249;-74
2020/12/31 08:11:09;;;;;;;24.15;15.08;;;;;;;8.25;98.25;98534.47;1689902;83;21508;-74
2020/12/31 08:13:37;;;;;;;27.73;14.85;;;;;;;8.20;98.42;98547.69;1686116;84;21046;-73
2020/12/31 08:16:07;;;;;;;25.90;15.30;;;;;;;8.21;98.71;98549.40;1715486;82;21082;-72
2020/12/31 08:18:36;;;;;;;24.63;13.58;;;;;;;8.19;98.63;98547.65;1722517;83;21209;-70
2020/12/31 08:21:06;;;;;;;19.65;12.78;;;;;;;8.22;98.81;98539.58;1722843;83;21145;-70
2020/12/31 08:23:40;;;;;;;23.18;14.50;;;;;;;8.22;98.46;98531.01;1725511;83;21037;-74
2020/12/31 08:26:09;;;;;;;28.25;14.58;;;;;;;8.12;98.45;98542.01;1665358;85;21225;-73
2020/12/31 08:28:38;;;;;;;26.45;14.90;;;;;;;8.13;98.71;98536.87;1734433;82;21046;-71
2020/12/31 08:31:16;;;;;;;21.52;13.72;;;;;;;8.18;98.69;98548.50;1676671;85;21110;-73
2020/12/31 08:33:44;;;;;;;28.00;15.68;;;;;;;8.20;98.33;98533.97;1725037;82;21062;-73
2020/12/31 08:36:23;;;;;;;27.05;15.95;;;;;;;8.17;98.39;98531.37;1719530;82;21035;-71
2020/12/31 08:39:00;;;;;;;28.57;16.27;;;;;;;8.18;98.64;98533.94;1724752;82;21209;-73
2020/12/31 08:41:26;;;;;;;24.57;14.55;;;;;;;8.26;98.69;98532.33;1728109;82;21035;-71
2020/12/31 08:43:55;;;;;;;25.12;14.95;;;;;;;8.29;98.16;98543.50;1709392;82;21236;-73
2020/12/31 08:46:23;;;;;;;25.35;15.03;;;;;;;8.21;98.27;98515.98;1731258;82;21098;-72
2020/12/31 08:48:56;;;;;;;22.20;14.33;;;;;;;8.13;98.50;98522.73;1718727;82;21051;-71
2020/12/31 08:51:29;;;;;;;28.12;15.00;;;;;;;8.14;98.55;98524.88;1735880;82;21441;-73
2020/12/31 08:54:00;;;;;;;23.45;13.78;;;;;;;8.21;98.53;98521.55;1750361;82;21485;-68
2020/12/31 08:56:30;;;;;;;23.47;14.00;;;;;;;8.30;98.36;98524.68;1734289;82;21600;-70
2020/12/31 08:59:16;;;;;;;24.35;14.10;;;;;;;8.31;98.11;98525.97;1721418;83;21493;-71
2020/12/31 09:01:46;;;;;;;28.52;15.98;;;;;;;8.32;98.10;98525.14;1704874;84;21221;-72
2020/12/31 09:04:19;;;;;;;23.27;13.80;;;;;;;8.22;98.24;98528.02;1664501;85;21185;-72
2020/12/31 09:06:51;;;;;;;25.77;14.55;;;;;;;8.22;98.17;98534.44;1665869;85;21107;-76
2020/12/31 09:09:26;;;;;;;26.35;15.45;;;;;;;8.27;98.36;98528.08;1652445;84;21453;-76
2020/12/31 09:12:04;;;;;;;25.95;15.30;;;;;;;8.31;98.24;98528.54;1695922;83;21050;-70
2020/12/31 09:14:37;;;;;;;24.67;14.28;;;;;;;8.31;98.19;98525.97;1723411;82;21023;-77
2020/12/31 09:17:23;;;;;;;24.77;15.43;;;;;;;8.32;98.28;98530.28;1736638;82;21054;-71
2020/12/31 09:19:54;;;;;;;25.85;14.25;;;;;;;8.36;98.41;98529.89;1746535;82;21055;-73
2020/12/31 09:22:24;;;;;;;29.32;15.13;;;;;;;8.39;98.25;98524.78;1690074;83;21213;-71
2020/12/31 09:24:53;;;;;;;23.12;13.65;;;;;;;8.44;98.28;98525.30;1731543;82;21453;-68
2020/12/31 09:27:24;;;;;;;26.45;14.28;;;;;;;8.51;98.06;98530.54;1690412;84;21172;-73
2020/12/31 09:29:58;;;;;;;24.35;14.15;;;;;;;8.37;97.97;98531.20;1698153;84;21087;-77
2020/12/31 09:32:28;;;;;;;29.48;15.75;;;;;;;8.32;98.16;98525.14;1663412;85;21236;-70
2020/12/31 09:34:58;;;;;;;27.37;14.00;;;;;;;8.35;98.36;98527.75;1685748;83;21062;-73
2020/12/31 09:37:26;;;;;;;21.85;14.73;;;;;;;8.34;98.17;98515.72;1689907;85;21123;-71
2020/12/31 09:39:53;;;;;;;26.42;14.60;;;;;;;8.36;98.41;98531.17;1692540;84;21070;-75
2020/12/31 09:42:21;;;;;;;25.48;13.30;;;;;;;8.34;98.64;98524.71;1665647;84;21075;-70
2020/12/31 09:44:49;;;;;;;22.80;12.68;;;;;;;8.38;98.71;98525.20;1697010;84;21074;-72
2020/12/31 09:47:17;;;;;;;22.50;12.53;;;;;;;8.41;98.89;98514.98;1696674;84;21675;-69
2020/12/31 09:49:44;;;;;;;26.73;13.25;;;;;;;8.30;98.87;98522.97;1728415;82;21026;-74
2020/12/31 09:52:12;;;;;;;25.12;13.32;;;;;;;8.27;99.43;98516.51;1726856;82;21524;-74
2020/12/31 09:54:39;;;;;;;25.45;13.90;;;;;;;8.28;99.65;98512.22;1728038;82;21087;-71
2020/12/31 09:57:07;;;;;;;22.30;12.78;;;;;;;8.33;99.83;98517.86;1719225;82;21031;-70
2020/12/31 09:59:34;;;;;;;22.27;12.15;;;;;;;8.34;99.78;98518.28;1726332;82;21043;-75
2020/12/31 10:02:02;;;;;;;24.52;12.82;;;;;;;8.24;100.00;98511.30;1697484;83;21648;-71
2020/12/31 10:04:29;;;;;;;19.73;12.07;;;;;;;8.28;100.00;98503.23;1669430;84;21119;-71
2020/12/31 10:06:57;;;;;;;24.65;13.62;;;;;;;8.24;100.00;98499.34;1732096;82;21250;-73
2020/12/31 10:09:24;;;;;;;21.62;10.68;;;;;;;8.25;100.00;98507.91;1737443;81;21027;-73
2020/12/31 10:11:55;;;;;;;20.35;12.15;;;;;;;8.25;100.00;98500.20;1721850;81;21101;-65
2020/12/31 10:14:23;;;;;;;19.90;12.18;;;;;;;8.21;100.00;98492.84;1728472;83;21612;-65
2020/12/31 10:16:52;;;;;;;21.87;14.00;;;;;;;8.17;100.00;98490.25;1658341;83;22213;-66
2020/12/31 10:19:20;;;;;;;18.30;10.55;;;;;;;8.18;100.00;98490.67;1719615;82;21113;-74
2020/12/31 10:21:47;;;;;;;18.73;9.73;;;;;;;8.18;100.00;98476.11;1729499;83;21628;-73
2020/12/31 10:24:16;;;;;;;21.07;10.70;;;;;;;8.24;100.00;98468.89;1729348;83;21173;-68
2020/12/31 10:26:46;;;;;;;16.90;10.15;;;;;;;8.23;100.00;98482.17;1716302;82;21690;-69
2020/12/31 10:29:15;;;;;;;20.43;10.05;;;;;;;8.19;100.00;98476.97;1700113;82;21505;-70
2020/12/31 10:31:45;;;;;;;21.75;11.12;;;;;;;8.11;100.00;98474.73;1723170;83;21513;-73
2020/12/31 10:34:12;;;;;;;19.80;11.60;;;;;;;8.10;100.00;98471.73;1752043;81;21074;-71
2020/12/31 10:36:40;;;;;;;21.07;12.15;;;;;;;8.18;100.00;98470.11;1732745;81;21087;-70
2020/12/31 10:39:07;;;;;;;24.10;12.00;;;;;;;8.19;100.00;98476.57;1716157;82;21078;-69
2020/12/31 10:41:35;;;;;;;19.55;11.22;;;;;;;8.19;100.00;98474.39;1728121;82;21041;-69
2020/12/31 10:44:03;;;;;;;22.58;12.45;;;;;;;8.12;100.00;98461.91;1703808;83;21090;-72
2020/12/31 10:46:30;;;;;;;16.80;10.18;;;;;;;8.03;100.00;98458.78;1699082;83;21062;-73
2020/12/31 10:48:59;;;;;;;17.12;10.82;;;;;;;7.99;100.00;98465.17;1721120;81;21118;-70
2020/12/31 10:51:27;;;;;;;16.85;9.78;;;;;;;7.97;100.00;98460.43;1702401;83;21589;-66
2020/12/31 10:53:55;;;;;;;17.32;9.60;;;;;;;7.96;100.00;98450.58;1681815;84;21023;-69
2020/12/31 10:56:22;;;;;;;18.48;10.30;;;;;;;8.00;100.00;98452.75;1700000;83;21118;-77
2020/12/31 10:58:50;;;;;;;18.12;10.55;;;;;;;7.98;100.00;98445.02;1702742;84;21069;-66
2020/12/31 11:01:17;;;;;;;17.75;9.80;;;;;;;8.01;100.00;98445.08;1731982;81;21558;-66
2020/12/31 11:03:46;;;;;;;17.98;10.28;;;;;;;8.01;100.00;98432.23;1685782;83;21039;-72
2020/12/31 11:06:20;;;;;;;21.30;11.25;;;;;;;8.04;100.00;98440.40;1726105;82;21048;-69
2020/12/31 11:08:48;;;;;;;17.67;10.28;;;;;;;8.05;100.00;98427.98;1682279;84;21079;-67
2020/12/31 11:11:22;;;;;;;20.08;10.88;;;;;;;8.07;100.00;98447.28;1668845;85;21036;-65
2020/12/31 11:13:50;;;;;;;15.55;10.00;;;;;;;8.12;100.00;98445.20;1683747;83;21059;-76
2020/12/31 11:16:18;;;;;;;20.40;11.40;;;;;;;8.18;100.00;98454.69;1682918;84;21118;-69
2020/12/31 11:18:46;;;;;;;19.02;10.80;;;;;;;8.17;100.00;98437.56;1671446;84;21521;-71
2020/12/31 11:21:17;;;;;;;18.35;10.65;;;;;;;8.17;100.00;98451.69;1679956;84;21054;-69
2020/12/31 11:23:45;;;;;;;20.48;10.55;;;;;;;8.22;100.00;98443.61;1662647;86;21584;-71
2020/12/31 11:26:15;;;;;;;20.55;10.88;;;;;;;8.23;100.00;98448.75;1676415;85;21229;-67
2020/12/31 11:28:44;;;;;;;17.02;10.58;;;;;;;8.28;100.00;98448.81;1683861;83;21050;-76
2020/12/31 11:31:12;;;;;;;17.12;9.90;;;;;;;8.29;100.00;98453.09;1667027;85;21229;-72